Nordic Currents — CFN4326 — position and weather

sailwx.info

Track history (hours):
 
Tides and Currents Weather Stations Pressure Air Temp Water Temp Dewpoint Dewpoint Depression Visibility Wind Speed Wind Dir Waves Ship Positions

Nordic Currents

Last reported at 2014-Jul-26 15:29 UTC. Time now 2014-Jul-30 19:23 UTC.
Position N 48°59' W 123°38'.

Type: Pleasure craft. MMSI: 316010421.

Date/timePositionNaut miles runAvg speedWind from/ knotsBaromVisibWave heightAir tempDewpointWater temp
2014-Jul-26 15:29N 48°59' W 123°38'1 0.2
2014-Jul-26 11:21N 48°59' W 123°39'0 0.0
2014-Jul-25 18:17N 48°59' W 123°39'5 5.9
2014-Jul-25 17:29N 49°03' W 123°43'11 5.8
2014-Jul-25 15:33N 49°10' W 123°56'0 0.1
2014-Jul-25 14:05N 49°10' W 123°56'0 0.0
2014-Jul-25 13:17N 49°10' W 123°56'0 0.0
2014-Jul-25 12:23N 49°10' W 123°56'0 0.0
2014-Jul-25 11:29N 49°10' W 123°56'0 0.0
2014-Jul-25 10:23N 49°10' W 123°56'0 0.0
2014-Jul-25 09:23N 49°10' W 123°56'0 0.0
2014-Jul-25 08:29N 49°10' W 123°56'0 0.0
2014-Jul-25 07:29N 49°10' W 123°56'0 0.0
2014-Jul-25 06:29N 49°10' W 123°56'0 0.0
2014-Jul-25 05:29N 49°10' W 123°56'0 0.0
2014-Jul-25 04:29N 49°10' W 123°56'0 0.0
2014-Jul-25 03:23N 49°10' W 123°56'0 0.0
2014-Jul-25 02:29N 49°10' W 123°56'0 0.0
2014-Jul-25 01:23N 49°10' W 123°56'0 0.0
2014-Jul-25 00:29N 49°10' W 123°56'0 0.0
2014-Jul-24 23:29N 49°10' W 123°56'0 0.0
2014-Jul-24 22:29N 49°10' W 123°56'0 0.0
2014-Jul-24 21:23N 49°10' W 123°56'1 1.4
2014-Jul-24 20:33N 49°11' W 123°55'6 6.4
2014-Jul-24 19:33N 49°16' W 124°01'6 6.0
2014-Jul-24 18:33N 49°19' W 124°09'6 6.0
2014-Jul-24 17:33N 49°22' W 124°17'7 6.1
2014-Jul-24 16:26N 49°26' W 124°25'6 6.9
2014-Jul-24 15:31N 49°29' W 124°33'3 0.2
2014-Jul-24 02:13N 49°31' W 124°37'1 0.1
2014-Jul-23 20:07N 49°31' W 124°37'3 5.7
2014-Jul-23 19:32N 49°28' W 124°40'12 5.7
2014-Jul-23 17:27N 49°37' W 124°53'  
Track history (hours):
 
Tides and Currents Weather Stations Pressure Air Temp Water Temp Dewpoint Dewpoint Depression Visibility Wind Speed Wind Dir Waves Ship Positions

Nordic Currents

Last reported at 2014-Jul-26 15:29 UTC. Time now 2014-Jul-30 19:23 UTC.
Position N 48°59' W 123°38'.

Type: Pleasure craft. MMSI: 316010421.

Date/timePositionNaut miles runAvg speedWind from/ knotsBaromVisibWave heightAir tempDewpointWater temp
2014-Jul-26 15:29N 48°59' W 123°38'1 0.2
2014-Jul-26 11:21N 48°59' W 123°39'0 0.0
2014-Jul-25 18:17N 48°59' W 123°39'5 5.9
2014-Jul-25 17:29N 49°03' W 123°43'11 5.8
2014-Jul-25 15:33N 49°10' W 123°56'0 0.1
2014-Jul-25 14:05N 49°10' W 123°56'0 0.0
2014-Jul-25 13:17N 49°10' W 123°56'0 0.0
2014-Jul-25 12:23N 49°10' W 123°56'0 0.0
2014-Jul-25 11:29N 49°10' W 123°56'0 0.0
2014-Jul-25 10:23N 49°10' W 123°56'0 0.0
2014-Jul-25 09:23N 49°10' W 123°56'0 0.0
2014-Jul-25 08:29N 49°10' W 123°56'0 0.0
2014-Jul-25 07:29N 49°10' W 123°56'0 0.0
2014-Jul-25 06:29N 49°10' W 123°56'0 0.0
2014-Jul-25 05:29N 49°10' W 123°56'0 0.0
2014-Jul-25 04:29N 49°10' W 123°56'0 0.0
2014-Jul-25 03:23N 49°10' W 123°56'0 0.0
2014-Jul-25 02:29N 49°10' W 123°56'0 0.0
2014-Jul-25 01:23N 49°10' W 123°56'0 0.0
2014-Jul-25 00:29N 49°10' W 123°56'0 0.0
2014-Jul-24 23:29N 49°10' W 123°56'0 0.0
2014-Jul-24 22:29N 49°10' W 123°56'0 0.0
2014-Jul-24 21:23N 49°10' W 123°56'1 1.4
2014-Jul-24 20:33N 49°11' W 123°55'6 6.4
2014-Jul-24 19:33N 49°16' W 124°01'6 6.0
2014-Jul-24 18:33N 49°19' W 124°09'6 6.0
2014-Jul-24 17:33N 49°22' W 124°17'7 6.1
2014-Jul-24 16:26N 49°26' W 124°25'6 6.9
2014-Jul-24 15:31N 49°29' W 124°33'3 0.2
2014-Jul-24 02:13N 49°31' W 124°37'1 0.1
2014-Jul-23 20:07N 49°31' W 124°37'3 5.7
2014-Jul-23 19:32N 49°28' W 124°40'12 5.7
2014-Jul-23 17:27N 49°37' W 124°53'  

Dump ship's entire track history